CheckWX is a tool to help pilots better visualize weather data.  It is not intended as a substitute for an official pre-flight weather briefing.

03:37:00 UTC

PAHC METAR
Holy Cross Airport
Holy Cross, Alaska, USA
Current

41 mins ago

PAHC 070256Z AUTO 21008KT 10SM BKN039 M06/M13 A3005 RMK AO2 SLP180 T10561128 56003 FZRANO
Observed
Apr-7 @ 02:56 UTC
Wind
  • 210° at 8 KTS
Visibility
Flight Rules
VFR
Cloud Levels
  • Broken at 3,900' AGL
Temperature
-6°C / 21°F
Dewpoint
-13°C / 9°F
Humidity
58%
Altimeter
30.05" Hg
Pressure
1017.62 hPa
Previous

2 hours ago

PAHC 070156Z AUTO 21010KT 10SM BKN041 M05/M13 A3006 RMK AO2 SLP181 T10501128 FZRANO
Observed
Apr-7 @ 01:56 UTC
Wind
  • 210° at 10 KTS
Visibility
Flight Rules
VFR
Cloud Levels
  • Broken at 4,100' AGL
Temperature
-5°C / 23°F
Dewpoint
-13°C / 9°F
Humidity
54%
Altimeter
30.06" Hg
Pressure
1017.92 hPa
Previous

3 hours ago

PAHC 070056Z AUTO 20011KT 10SM OVC039 M06/M13 A3006 RMK AO2 SLP182 T10561128 FZRANO
Observed
Apr-7 @ 00:56 UTC
Wind
  • 200° at 11 KTS
Visibility
Flight Rules
VFR
Cloud Levels
  • Overcast at 3,900' AGL
Temperature
-6°C / 21°F
Dewpoint
-13°C / 9°F
Humidity
58%
Altimeter
30.06" Hg
Pressure
1017.92 hPa